createdAt,value
2022-08-23T00:00:13.211Z,984.5
2022-08-23T00:02:23.058Z,984.5
2022-08-23T00:04:14.538Z,984.5
2022-08-23T00:06:15.587Z,984.5
2022-08-23T00:08:17.218Z,984.6
2022-08-23T00:10:19.068Z,984.6
2022-08-23T00:12:20.764Z,984.6
2022-08-23T00:14:22.435Z,984.6
2022-08-23T00:16:24.153Z,984.5
2022-08-23T00:18:25.284Z,984.5
2022-08-23T00:20:26.848Z,984.4
2022-08-23T00:22:27.980Z,984.5
2022-08-23T00:24:29.739Z,984.4
2022-08-23T00:26:31.318Z,984.4
2022-08-23T00:28:32.922Z,984.5
2022-08-23T00:30:34.539Z,984.4
2022-08-23T00:32:35.971Z,984.4
2022-08-23T00:34:36.893Z,984.5
2022-08-23T00:36:37.895Z,984.5
2022-08-23T00:40:40.798Z,984.6
2022-08-23T00:42:41.802Z,984.4
2022-08-23T00:44:43.792Z,984.4
2022-08-23T00:46:45.158Z,984.4
2022-08-23T00:48:46.400Z,984.4
2022-08-23T00:50:47.782Z,984.5
2022-08-23T00:52:49.566Z,984.5
2022-08-23T00:54:51.063Z,984.5
2022-08-23T00:56:52.943Z,984.4
2022-08-23T00:58:53.910Z,984.4
2022-08-23T01:00:55.327Z,984.3
2022-08-23T01:02:56.556Z,984.4
2022-08-23T01:04:58.217Z,984.3
2022-08-23T01:06:59.220Z,984.4
2022-08-23T01:09:00.825Z,984.4
2022-08-23T01:11:02.391Z,984.3
2022-08-23T01:13:04.096Z,984.3
2022-08-23T01:15:05.549Z,984.3
2022-08-23T01:17:06.578Z,984.3
2022-08-23T01:19:07.992Z,984.4
2022-08-23T01:21:10.297Z,984.3
2022-08-23T01:23:11.409Z,984.3
2022-08-23T01:25:12.873Z,984.2
2022-08-23T01:27:13.847Z,984.3
2022-08-23T01:29:15.272Z,984.3
2022-08-23T01:31:16.986Z,984.3
2022-08-23T01:33:18.738Z,984.4
2022-08-23T01:37:22.127Z,984.4
2022-08-23T01:39:23.420Z,984.4
2022-08-23T01:41:24.520Z,984.4
2022-08-23T01:43:26.311Z,984.4
2022-08-23T01:45:28.243Z,984.4
2022-08-23T01:47:29.475Z,984.4
2022-08-23T01:49:30.922Z,984.4
2022-08-23T01:51:32.028Z,984.4
2022-08-23T01:53:33.010Z,984.4
2022-08-23T01:55:34.176Z,984.5
2022-08-23T01:59:37.481Z,984.4
2022-08-23T02:01:38.912Z,984.4
2022-08-23T02:03:39.845Z,984.5
2022-08-23T02:05:41.665Z,984.6
2022-08-23T02:09:45.184Z,984.6
2022-08-23T02:11:46.827Z,984.6
2022-08-23T02:13:48.511Z,984.6
2022-08-23T02:15:49.732Z,984.5
2022-08-23T02:17:50.782Z,984.6
2022-08-23T02:19:51.802Z,984.5
2022-08-23T02:21:52.812Z,984.5
2022-08-23T02:23:53.977Z,984.6
2022-08-23T02:25:55.136Z,984.6
2022-08-23T02:27:56.958Z,984.6
2022-08-23T02:29:58.017Z,984.6
2022-08-23T02:31:59.841Z,984.6
2022-08-23T02:36:02.245Z,984.6
2022-08-23T02:38:03.521Z,984.6
2022-08-23T02:40:04.688Z,984.5
2022-08-23T02:42:06.036Z,984.5
2022-08-23T02:44:07.558Z,984.6
2022-08-23T02:46:09.193Z,984.7
2022-08-23T02:48:10.813Z,984.6
2022-08-23T02:50:12.662Z,984.6
2022-08-23T02:52:13.648Z,984.6
2022-08-23T02:54:15.213Z,984.6
2022-08-23T02:56:21.122Z,984.7
2022-08-23T02:58:17.524Z,984.6
2022-08-23T03:00:19.275Z,984.7
2022-08-23T03:04:21.963Z,984.6
2022-08-23T03:06:25.094Z,984.6
2022-08-23T03:08:25.388Z,984.7
2022-08-23T03:10:26.878Z,984.7
2022-08-23T03:12:28.272Z,984.7
2022-08-23T03:14:29.867Z,984.7
2022-08-23T03:16:31.557Z,984.7
2022-08-23T03:18:32.514Z,984.6
2022-08-23T03:20:34.442Z,984.6
2022-08-23T03:22:36.327Z,984.7
2022-08-23T03:24:37.355Z,984.7
2022-08-23T03:26:38.651Z,984.7
2022-08-23T03:28:39.786Z,984.6
2022-08-23T03:30:40.881Z,984.7
2022-08-23T03:32:41.877Z,984.6
2022-08-23T03:34:43.051Z,984.6
2022-08-23T03:36:44.057Z,984.7
2022-08-23T03:38:45.888Z,984.6
2022-08-23T03:40:47.403Z,984.6
2022-08-23T03:42:49.282Z,984.6
2022-08-23T03:44:50.898Z,984.6
2022-08-23T03:46:52.250Z,984.6
2022-08-23T03:48:54.135Z,984.6
2022-08-23T03:50:55.777Z,984.7
2022-08-23T03:52:57.181Z,984.6
2022-08-23T03:54:58.666Z,984.8
2022-08-23T03:57:00.422Z,984.7
2022-08-23T03:59:02.283Z,984.8
2022-08-23T04:01:04.165Z,984.8
2022-08-23T04:03:05.912Z,984.7
2022-08-23T04:05:07.168Z,984.8
2022-08-23T04:07:09.047Z,984.8
2022-08-23T04:09:10.861Z,984.8
2022-08-23T04:11:12.503Z,984.8
2022-08-23T04:13:14.020Z,984.8
2022-08-23T04:15:15.652Z,984.9
2022-08-23T04:19:19.261Z,984.9
2022-08-23T04:21:20.535Z,984.9
2022-08-23T04:23:21.642Z,984.9
2022-08-23T04:25:34.171Z,985
2022-08-23T04:27:24.851Z,984.9
2022-08-23T04:29:34.129Z,984.9
2022-08-23T04:31:27.449Z,985
2022-08-23T04:33:29.373Z,985
2022-08-23T04:35:30.350Z,985
2022-08-23T04:37:32.053Z,985
2022-08-23T04:39:33.291Z,985
2022-08-23T04:41:34.310Z,985
2022-08-23T04:43:35.766Z,985
2022-08-23T04:45:36.779Z,985.1
2022-08-23T04:47:38.247Z,985.1
2022-08-23T04:49:39.996Z,985.1
2022-08-23T04:51:41.525Z,985.1
2022-08-23T04:53:43.045Z,985.2
2022-08-23T04:55:44.094Z,985.2
2022-08-23T04:57:45.113Z,985.2
2022-08-23T04:59:46.350Z,985.3
2022-08-23T05:01:47.406Z,985.3
2022-08-23T05:03:48.842Z,985.3
2022-08-23T05:05:50.230Z,985.3
2022-08-23T05:07:51.474Z,985.3
2022-08-23T05:09:53.365Z,985.3
2022-08-23T05:11:54.697Z,985.3
2022-08-23T05:13:55.780Z,985.3
2022-08-23T05:15:56.804Z,985.3
2022-08-23T05:17:57.842Z,985.4
2022-08-23T05:19:58.894Z,985.2
2022-08-23T05:22:00.599Z,985.4
2022-08-23T05:24:02.158Z,985.4
2022-08-23T05:26:03.651Z,985.4
2022-08-23T05:28:04.897Z,985.4
2022-08-23T05:30:06.683Z,985.4
2022-08-23T05:32:07.724Z,985.3
2022-08-23T05:34:09.517Z,985.5
2022-08-23T05:36:11.113Z,985.5
2022-08-23T05:38:12.882Z,985.5
2022-08-23T05:40:14.312Z,985.5
2022-08-23T05:44:17.090Z,985.5
2022-08-23T05:46:18.489Z,985.6
2022-08-23T05:48:19.431Z,985.5
2022-08-23T05:50:20.940Z,985.6
2022-08-23T05:52:22.277Z,985.6
2022-08-23T05:54:23.294Z,985.7
2022-08-23T05:56:25.013Z,985.6
2022-08-23T05:58:26.280Z,985.6
2022-08-23T06:00:38.147Z,985.6
2022-08-23T06:02:29.488Z,985.6
2022-08-23T06:04:30.661Z,985.7
2022-08-23T06:06:34.923Z,985.6
2022-08-23T06:08:33.495Z,985.6
2022-08-23T06:10:34.673Z,985.6
2022-08-23T06:12:35.574Z,985.6
2022-08-23T06:14:37.405Z,985.6
2022-08-23T06:16:39.107Z,985.6
2022-08-23T06:18:40.192Z,985.6
2022-08-23T06:20:41.216Z,985.6
2022-08-23T06:22:42.392Z,985.6
2022-08-23T06:24:43.645Z,985.6
2022-08-23T06:26:45.262Z,985.6
2022-08-23T06:28:50.614Z,985.7
2022-08-23T06:30:48.541Z,985.7
2022-08-23T06:32:49.520Z,985.6
2022-08-23T06:34:50.637Z,985.7
2022-08-23T06:36:52.275Z,985.7
2022-08-23T06:38:54.091Z,985.7
2022-08-23T06:40:54.978Z,985.7
2022-08-23T06:42:56.104Z,985.8
2022-08-23T06:43:39.846Z,985.7
2022-08-23T06:47:42.167Z,985.8
2022-08-23T06:49:50.983Z,985.7
2022-08-23T06:53:46.410Z,985.7
2022-08-23T06:55:47.286Z,985.7
2022-08-23T06:57:48.778Z,985.7
2022-08-23T06:59:49.776Z,985.8
2022-08-23T07:01:50.912Z,985.8
2022-08-23T07:03:52.506Z,985.7
2022-08-23T07:05:53.390Z,985.7
2022-08-23T07:07:55.065Z,985.7
2022-08-23T07:09:56.512Z,985.7
2022-08-23T07:11:57.946Z,985.8
2022-08-23T07:13:59.746Z,985.8
2022-08-23T07:16:01.162Z,985.8
2022-08-23T07:18:02.848Z,985.8
2022-08-23T07:20:04.015Z,985.8
2022-08-23T07:22:05.193Z,985.8
2022-08-23T07:24:06.528Z,985.9
2022-08-23T07:26:07.658Z,985.9
2022-08-23T07:30:09.995Z,985.8
2022-08-23T07:32:11.655Z,985.9
2022-08-23T07:34:12.550Z,985.9
2022-08-23T07:36:13.581Z,985.9
2022-08-23T07:40:20.212Z,986
2022-08-23T07:42:23.273Z,985.8
2022-08-23T07:44:18.628Z,985.9
2022-08-23T07:46:19.397Z,985.9
2022-08-23T07:48:31.980Z,985.8
2022-08-23T07:50:21.881Z,985.8
2022-08-23T07:52:23.566Z,985.9
2022-08-23T07:54:25.084Z,985.9
2022-08-23T07:56:26.046Z,985.9
2022-08-23T07:58:26.795Z,985.9
2022-08-23T08:00:27.671Z,985.9
2022-08-23T08:02:29.194Z,985.9
2022-08-23T08:04:30.387Z,985.9
2022-08-23T08:06:31.976Z,985.9
2022-08-23T08:08:33.675Z,985.9
2022-08-23T08:10:34.755Z,986
2022-08-23T08:12:35.660Z,986
2022-08-23T08:14:37.311Z,986
2022-08-23T08:16:38.075Z,985.9
2022-08-23T08:18:38.863Z,986
2022-08-23T08:20:39.992Z,986
2022-08-23T08:22:43.297Z,986
2022-08-23T08:24:42.250Z,986.1
2022-08-23T08:26:43.157Z,986.1
2022-08-23T08:28:44.665Z,986
2022-08-23T08:30:45.447Z,986.1
2022-08-23T08:34:48.693Z,986.1
2022-08-23T08:36:50.292Z,986.1
2022-08-23T08:38:52.496Z,986.1
2022-08-23T08:40:51.911Z,986.1
2022-08-23T08:42:53.407Z,986.1
2022-08-23T08:44:55.146Z,986.1
2022-08-23T08:46:56.561Z,986
2022-08-23T08:48:58.055Z,986.1
2022-08-23T08:50:58.938Z,986.1
2022-08-23T08:53:00.396Z,986.1
2022-08-23T08:55:01.390Z,986.1
2022-08-23T08:57:02.563Z,986.1
2022-08-23T09:01:05.151Z,986.1
2022-08-23T09:03:06.837Z,986.1
2022-08-23T09:05:07.979Z,986.1
2022-08-23T09:07:08.976Z,986.1
2022-08-23T09:11:12.080Z,986.2
2022-08-23T09:13:13.483Z,986.2
2022-08-23T09:15:14.608Z,986.2
2022-08-23T09:17:16.235Z,986.1
2022-08-23T09:19:17.156Z,986.1
2022-08-23T09:21:18.482Z,986.1
2022-08-23T09:23:19.828Z,986.2
2022-08-23T09:25:20.891Z,986.2
2022-08-23T09:27:22.101Z,986.2
2022-08-23T09:29:23.360Z,986
2022-08-23T09:31:24.273Z,986
2022-08-23T09:33:25.983Z,986.1
2022-08-23T09:35:26.740Z,986.1
2022-08-23T09:37:27.963Z,986.1
2022-08-23T09:39:30.408Z,986.1
2022-08-23T09:41:30.689Z,986.1
2022-08-23T09:43:32.257Z,986
2022-08-23T09:45:35.527Z,986.1
2022-08-23T09:47:38.406Z,986
2022-08-23T09:49:36.357Z,986.1
2022-08-23T09:51:37.659Z,986.1
2022-08-23T09:53:41.033Z,986.1
2022-08-23T09:55:39.633Z,986
2022-08-23T09:57:40.556Z,986
2022-08-23T09:59:41.976Z,986.1
2022-08-23T10:01:42.864Z,986.1
2022-08-23T10:03:43.800Z,986
2022-08-23T10:05:45.118Z,986
2022-08-23T10:07:46.673Z,986.1
2022-08-23T10:09:48.216Z,986
2022-08-23T10:11:49.768Z,986
2022-08-23T10:15:52.195Z,986
2022-08-23T10:17:54.009Z,986
2022-08-23T10:19:54.958Z,986.1
2022-08-23T10:21:56.312Z,985.9
2022-08-23T10:23:57.822Z,985.9
2022-08-23T10:25:58.728Z,985.9
2022-08-23T10:27:59.752Z,985.9
2022-08-23T10:30:01.028Z,985.9
2022-08-23T10:32:01.956Z,985.9
2022-08-23T10:34:03.303Z,985.8
2022-08-23T10:36:04.539Z,985.9
2022-08-23T10:38:05.667Z,985.9
2022-08-23T10:40:07.254Z,985.9
2022-08-23T10:42:08.447Z,985.8
2022-08-23T10:44:09.683Z,985.7
2022-08-23T10:46:10.805Z,985.7
2022-08-23T10:50:12.936Z,985.7
2022-08-23T10:54:14.957Z,985.6
2022-08-23T10:58:16.825Z,985.7
2022-08-23T11:00:17.803Z,985.6
2022-08-23T11:02:19.253Z,985.7
2022-08-23T11:04:20.817Z,985.6
2022-08-23T11:06:22.142Z,985.5
2022-08-23T11:08:23.842Z,985.6
2022-08-23T11:10:24.848Z,985.7
2022-08-23T11:12:26.199Z,985.7
2022-08-23T11:14:27.708Z,985.6
2022-08-23T11:16:29.397Z,985.6
2022-08-23T11:18:33.207Z,985.5
2022-08-23T11:20:31.466Z,985.6
2022-08-23T11:22:32.291Z,985.5
2022-08-23T11:24:33.626Z,985.5
2022-08-23T11:26:34.942Z,985.5
2022-08-23T11:28:35.995Z,985.5
2022-08-23T11:30:37.431Z,985.5
2022-08-23T11:32:38.655Z,985.5
2022-08-23T11:34:40.227Z,985.5
2022-08-23T11:36:41.288Z,985.4
2022-08-23T11:38:42.961Z,985.5
2022-08-23T11:40:44.314Z,985.5
2022-08-23T11:42:45.095Z,985.4
2022-08-23T11:44:46.389Z,985.5
2022-08-23T11:46:47.521Z,985.5
2022-08-23T11:48:48.971Z,985.4
2022-08-23T11:50:53.090Z,985.4
2022-08-23T11:52:51.661Z,985.4
2022-08-23T11:56:54.268Z,985.4
2022-08-23T11:58:55.081Z,985.5
2022-08-23T12:00:55.913Z,985.4
2022-08-23T12:02:56.889Z,985.4
2022-08-23T12:04:58.021Z,985.4
2022-08-23T12:06:58.980Z,985.4
2022-08-23T12:09:01.614Z,985.4
2022-08-23T12:11:01.584Z,985.3
2022-08-23T12:13:02.409Z,985.5
2022-08-23T12:15:03.892Z,985.3
2022-08-23T12:17:05.861Z,985.4
2022-08-23T12:19:06.842Z,985.4
2022-08-23T12:21:08.479Z,985.4
2022-08-23T12:23:09.973Z,985.4
2022-08-23T12:25:11.233Z,985.4
2022-08-23T12:27:12.463Z,985.4
2022-08-23T12:29:13.636Z,985.3
2022-08-23T12:33:15.988Z,985.2
2022-08-23T12:35:17.674Z,985.3
2022-08-23T12:37:19.092Z,985.3
2022-08-23T12:39:19.919Z,985.2
2022-08-23T12:41:21.276Z,985.3
2022-08-23T12:43:23.078Z,985.3
2022-08-23T12:45:24.368Z,985.2
2022-08-23T12:47:25.241Z,985.3
2022-08-23T12:49:26.472Z,985.2
2022-08-23T12:51:27.215Z,985.2
2022-08-23T12:53:28.762Z,985.2
2022-08-23T12:55:29.526Z,985.2
2022-08-23T12:57:39.961Z,985.2
2022-08-23T12:59:32.185Z,985.2
2022-08-23T13:01:33.599Z,985.2
2022-08-23T13:03:34.636Z,985.3
2022-08-23T13:05:36.272Z,985.2
2022-08-23T13:07:37.891Z,985.2
2022-08-23T13:09:39.357Z,985.2
2022-08-23T13:11:40.015Z,985.1
2022-08-23T13:13:41.383Z,985.1
2022-08-23T13:15:42.809Z,985.2
2022-08-23T13:17:44.382Z,985.1
2022-08-23T13:19:45.411Z,985.1
2022-08-23T13:21:46.618Z,985.2
2022-08-23T13:23:48.051Z,985.1
2022-08-23T13:25:49.060Z,985
2022-08-23T13:27:50.163Z,985
2022-08-23T13:28:34.043Z,985.1
2022-08-23T13:32:36.828Z,985
2022-08-23T13:34:38.863Z,985.1
2022-08-23T13:36:38.802Z,985.1
2022-08-23T13:38:40.241Z,985.1
2022-08-23T13:40:41.146Z,985
2022-08-23T13:42:42.036Z,985
2022-08-23T13:44:43.572Z,985
2022-08-23T13:46:45.041Z,985
2022-08-23T13:48:46.033Z,985
2022-08-23T13:50:47.472Z,985
2022-08-23T13:54:51.010Z,985
2022-08-23T13:56:51.959Z,985
2022-08-23T13:58:52.686Z,985
2022-08-23T14:00:55.120Z,985.1
2022-08-23T14:02:55.675Z,985
2022-08-23T14:04:56.461Z,985
2022-08-23T14:06:57.826Z,985
2022-08-23T14:08:59.426Z,984.9
2022-08-23T14:11:00.799Z,985
2022-08-23T14:15:02.993Z,985
2022-08-23T14:21:07.967Z,985
2022-08-23T14:23:11.576Z,985
2022-08-23T14:25:10.414Z,985
2022-08-23T14:27:11.410Z,984.9
2022-08-23T14:29:13.993Z,985
2022-08-23T14:31:13.709Z,984.9
2022-08-23T14:33:15.127Z,985
2022-08-23T14:35:16.052Z,984.9
2022-08-23T14:38:00.407Z,984.9
2022-08-23T14:39:19.216Z,984.9
2022-08-23T14:41:19.842Z,985
2022-08-23T14:43:20.720Z,985
2022-08-23T14:45:21.488Z,985
2022-08-23T14:47:22.633Z,984.9
2022-08-23T14:49:24.163Z,984.9
2022-08-23T14:51:25.364Z,984.9
2022-08-23T14:53:26.109Z,984.9
2022-08-23T14:55:27.121Z,984.9
2022-08-23T14:57:27.924Z,984.8
2022-08-23T14:59:29.319Z,984.8
2022-08-23T15:01:30.889Z,984.9
2022-08-23T15:03:31.730Z,984.9
2022-08-23T15:07:34.760Z,984.8
2022-08-23T15:09:34.535Z,984.9
2022-08-23T15:13:41.098Z,984.9
2022-08-23T15:15:38.193Z,984.8
2022-08-23T15:17:39.337Z,984.9
2022-08-23T15:19:40.571Z,984.8
2022-08-23T15:21:42.098Z,984.8
2022-08-23T15:23:43.934Z,984.8
2022-08-23T15:25:45.120Z,984.9
2022-08-23T15:27:46.403Z,984.8
2022-08-23T15:29:47.741Z,984.7
2022-08-23T15:31:49.273Z,984.9
2022-08-23T15:33:50.693Z,984.8
2022-08-23T15:35:52.333Z,984.8
2022-08-23T15:37:53.458Z,984.8
2022-08-23T15:39:54.777Z,984.7
2022-08-23T15:41:56.032Z,984.8
2022-08-23T15:43:57.431Z,984.7
2022-08-23T15:45:58.325Z,984.7
2022-08-23T15:47:59.079Z,984.8
2022-08-23T15:50:00.268Z,984.7
2022-08-23T15:52:02.133Z,984.8
2022-08-23T15:54:02.550Z,984.8
2022-08-23T15:56:05.692Z,984.9
2022-08-23T15:58:05.000Z,984.8
2022-08-23T16:00:05.985Z,984.8
2022-08-23T16:02:07.468Z,984.8
2022-08-23T16:04:08.632Z,984.9
2022-08-23T16:06:10.070Z,984.9
2022-08-23T16:08:11.154Z,984.8
2022-08-23T16:12:13.125Z,984.8
2022-08-23T16:14:14.009Z,984.8
2022-08-23T16:16:14.892Z,984.9
2022-08-23T16:18:15.824Z,984.8
2022-08-23T16:20:17.502Z,984.7
2022-08-23T16:22:19.206Z,984.8
2022-08-23T16:24:20.175Z,984.7
2022-08-23T16:26:21.831Z,984.7
2022-08-23T16:28:22.598Z,984.7
2022-08-23T16:30:24.293Z,984.7
2022-08-23T16:32:25.496Z,984.7
2022-08-23T16:34:27.043Z,984.8
2022-08-23T16:38:29.654Z,984.7
2022-08-23T16:40:31.281Z,984.8
2022-08-23T16:42:32.330Z,984.9
2022-08-23T16:44:34.005Z,984.8
2022-08-23T16:48:36.356Z,984.8
2022-08-23T16:50:37.619Z,984.8
2022-08-23T16:52:39.117Z,984.8
2022-08-23T16:54:40.765Z,984.8
2022-08-23T16:56:41.740Z,984.8
2022-08-23T16:58:42.820Z,984.8
2022-08-23T17:00:44.164Z,984.7
2022-08-23T17:02:45.439Z,984.8
2022-08-23T17:04:49.718Z,984.8
2022-08-23T17:06:47.924Z,984.8
2022-08-23T17:08:48.955Z,984.8
2022-08-23T17:10:50.604Z,984.8
2022-08-23T17:12:52.197Z,984.7
2022-08-23T17:14:53.001Z,984.8
2022-08-23T17:16:53.951Z,984.8
2022-08-23T17:18:55.238Z,984.8
2022-08-23T17:20:56.752Z,984.8
2022-08-23T17:22:57.798Z,985
2022-08-23T17:24:59.365Z,984.9
2022-08-23T17:27:00.278Z,984.8
2022-08-23T17:29:01.687Z,984.8
2022-08-23T17:31:02.827Z,984.9
2022-08-23T17:33:04.552Z,985
2022-08-23T17:35:05.901Z,985
2022-08-23T17:37:07.515Z,985
2022-08-23T17:39:08.762Z,985
2022-08-23T17:41:10.053Z,985
2022-08-23T17:43:11.284Z,985
2022-08-23T17:45:12.563Z,985
2022-08-23T17:47:14.277Z,985.1
2022-08-23T17:49:15.073Z,985.1
2022-08-23T17:51:16.230Z,985.1
2022-08-23T17:53:17.941Z,985.2
2022-08-23T17:55:19.682Z,985.1
2022-08-23T17:57:21.497Z,985.1
2022-08-23T17:59:22.577Z,985.2
2022-08-23T18:01:23.661Z,985.2
2022-08-23T18:03:25.322Z,985.2
2022-08-23T18:05:26.180Z,985.2
2022-08-23T18:07:27.239Z,985.2
2022-08-23T18:09:28.191Z,985.3
2022-08-23T18:11:29.876Z,985.2
2022-08-23T18:13:31.420Z,985.3
2022-08-23T18:15:32.307Z,985.2
2022-08-23T18:17:34.048Z,985.3
2022-08-23T18:19:34.996Z,985.4
2022-08-23T18:21:36.589Z,985.4
2022-08-23T18:23:37.719Z,985.4
2022-08-23T18:25:39.398Z,985.4
2022-08-23T18:29:41.823Z,985.5
2022-08-23T18:31:43.277Z,985.5
2022-08-23T18:33:46.269Z,985.5
2022-08-23T18:35:45.299Z,985.4
2022-08-23T18:37:46.217Z,985.5
2022-08-23T18:39:47.363Z,985.5
2022-08-23T18:41:48.324Z,985.5
2022-08-23T18:43:49.161Z,985.5
2022-08-23T18:45:50.702Z,985.5
2022-08-23T18:47:52.169Z,985.6
2022-08-23T18:49:53.713Z,985.6
2022-08-23T18:51:54.557Z,985.6
2022-08-23T18:53:55.935Z,985.6
2022-08-23T18:55:56.892Z,985.7
2022-08-23T18:57:58.193Z,985.6
2022-08-23T18:59:59.334Z,985.7
2022-08-23T19:02:01.078Z,985.7
2022-08-23T19:04:01.977Z,985.7
2022-08-23T19:08:04.470Z,985.8
2022-08-23T19:10:06.096Z,985.7
2022-08-23T19:12:07.018Z,985.9
2022-08-23T19:14:08.489Z,985.8
2022-08-23T19:16:09.446Z,985.8
2022-08-23T19:18:10.674Z,985.9
2022-08-23T19:20:11.548Z,985.9
2022-08-23T19:22:12.793Z,986
2022-08-23T19:24:13.852Z,985.9
2022-08-23T19:26:14.820Z,985.9
2022-08-23T19:28:16.017Z,986
2022-08-23T19:30:17.863Z,985.9
2022-08-23T19:32:18.890Z,986
2022-08-23T19:34:20.397Z,986
2022-08-23T19:36:42.968Z,986
2022-08-23T19:38:22.988Z,986
2022-08-23T19:40:24.580Z,986
2022-08-23T19:42:26.028Z,986.1
2022-08-23T19:44:27.815Z,986.1
2022-08-23T19:46:28.882Z,986.1
2022-08-23T19:48:30.195Z,986.2
2022-08-23T19:50:31.636Z,986.2
2022-08-23T19:52:32.752Z,986.1
2022-08-23T19:54:34.495Z,986.2
2022-08-23T19:56:36.202Z,986.1
2022-08-23T19:58:37.243Z,986.2
2022-08-23T20:00:39.058Z,986.2
2022-08-23T20:02:40.562Z,986.2
2022-08-23T20:04:41.520Z,986.2
2022-08-23T20:06:42.378Z,986.2
2022-08-23T20:10:44.706Z,986.3
2022-08-23T20:12:45.836Z,986.3
2022-08-23T20:13:29.330Z,986.4
2022-08-23T20:15:30.612Z,986.5
2022-08-23T20:17:32.571Z,986.3
2022-08-23T20:19:34.181Z,986.4
2022-08-23T20:21:35.114Z,986.4
2022-08-23T20:23:35.969Z,986.5
2022-08-23T20:25:37.628Z,986.4
2022-08-23T20:27:38.889Z,986.4
2022-08-23T20:29:40.001Z,986.5
2022-08-23T20:31:41.581Z,986.5
2022-08-23T20:33:46.207Z,986.5
2022-08-23T20:35:43.969Z,986.5
2022-08-23T20:37:45.383Z,986.5
2022-08-23T20:39:46.787Z,986.5
2022-08-23T20:41:48.311Z,986.5
2022-08-23T20:43:50.105Z,986.6
2022-08-23T20:45:51.106Z,986.6
2022-08-23T20:47:52.551Z,986.6
2022-08-23T20:49:53.837Z,986.7
2022-08-23T20:51:55.489Z,986.6
2022-08-23T20:53:56.293Z,986.7
2022-08-23T20:55:57.812Z,986.6
2022-08-23T20:57:59.107Z,986.6
2022-08-23T21:00:00.061Z,986.6
2022-08-23T21:02:01.067Z,986.6
2022-08-23T21:04:02.575Z,986.7
2022-08-23T21:06:03.996Z,986.7
2022-08-23T21:08:05.642Z,986.7
2022-08-23T21:10:06.817Z,986.8
2022-08-23T21:12:08.521Z,986.7
2022-08-23T21:14:09.517Z,986.8
2022-08-23T21:16:10.584Z,986.7
2022-08-23T21:18:11.732Z,986.7
2022-08-23T21:20:12.644Z,986.7
2022-08-23T21:22:14.307Z,986.6
2022-08-23T21:24:15.482Z,986.7
2022-08-23T21:26:16.553Z,986.6
2022-08-23T21:28:17.728Z,986.6
2022-08-23T21:30:18.987Z,986.7
2022-08-23T21:32:19.940Z,986.7
2022-08-23T21:34:21.361Z,986.7
2022-08-23T21:36:22.720Z,986.8
2022-08-23T21:38:24.401Z,986.9
2022-08-23T21:40:26.015Z,986.8
2022-08-23T21:42:27.352Z,986.8
2022-08-23T21:44:29.277Z,986.7
2022-08-23T21:46:30.415Z,986.7
2022-08-23T21:48:31.963Z,986.9
2022-08-23T21:50:33.757Z,986.8
2022-08-23T21:52:34.967Z,986.8
2022-08-23T21:54:40.256Z,986.7
2022-08-23T21:56:37.741Z,986.8
2022-08-23T21:58:38.852Z,986.8
2022-08-23T22:00:39.983Z,986.8
2022-08-23T22:02:41.241Z,986.8
2022-08-23T22:04:42.891Z,986.8
2022-08-23T22:06:44.527Z,986.8
2022-08-23T22:08:45.556Z,986.8
2022-08-23T22:10:52.167Z,986.7
2022-08-23T22:12:48.339Z,986.8
2022-08-23T22:14:49.335Z,986.7
2022-08-23T22:16:51.623Z,986.8
2022-08-23T22:18:52.783Z,986.7
2022-08-23T22:20:54.196Z,986.8
2022-08-23T22:22:55.376Z,986.8
2022-08-23T22:24:56.273Z,986.8
2022-08-23T22:28:59.505Z,986.8
2022-08-23T22:31:01.067Z,986.7
2022-08-23T22:33:02.252Z,986.7
2022-08-23T22:35:03.265Z,986.8
2022-08-23T22:37:04.914Z,986.8
2022-08-23T22:39:06.541Z,986.8
2022-08-23T22:41:07.991Z,986.9
2022-08-23T22:43:09.720Z,986.8
2022-08-23T22:45:10.883Z,986.8
2022-08-23T22:47:12.486Z,986.9
2022-08-23T22:49:13.922Z,986.9
2022-08-23T22:51:15.342Z,986.8
2022-08-23T22:53:16.632Z,986.9
2022-08-23T22:55:18.077Z,986.9
2022-08-23T22:57:19.067Z,986.9
2022-08-23T22:59:20.588Z,986.9
2022-08-23T23:01:22.227Z,986.9
2022-08-23T23:03:23.748Z,986.9
2022-08-23T23:05:25.504Z,986.9
2022-08-23T23:07:26.413Z,986.9
2022-08-23T23:09:27.702Z,986.8
2022-08-23T23:11:29.555Z,986.9
2022-08-23T23:13:30.753Z,986.9
2022-08-23T23:33:44.568Z,987
2022-08-23T23:37:49.563Z,987
2022-08-23T23:39:48.883Z,987
2022-08-23T23:41:50.151Z,987
2022-08-23T23:43:51.324Z,987
2022-08-23T23:45:52.913Z,987
2022-08-23T23:47:54.141Z,987
2022-08-23T23:49:55.411Z,987
2022-08-23T23:51:56.810Z,987
2022-08-23T23:53:58.504Z,987
2022-08-23T23:56:00.048Z,987
2022-08-23T23:58:01.856Z,987
